Aviation Digital Data Service (ADDS)

Output produced by METARs form (0737 UTC 20 November 2017)
found at http://aviationweather.gov/adds/metars/
 
KLFK 200653Z AUTO 25004KT 9SM CLR 03/03 A3023 RMK AO2 SLP236 T00330028